X  Fermer Données météorologiques d'aviation de Metar     EHKD De Kooy Airport
Température
41°F Température
34°F Point de rosée
76% Humidité



Vent
10 MPH
16 KM/H
4 M/S
9 KTS



350°
N
Conditions actuelles

Partiellement nuageux Partiellement nuageux
Pression 1010.84 (hPa) - 29.85 (inHg)
Visibilité 6 (mile) - 9.7 (km)
Aéroport
Code de l'aéroport EHKD

Emplacement: De Kooy Airport
Distance: 34 (mi)

Metar:
EHKD 240255Z AUTO 35009KT 290V040 9999 FEW015CB SCT029 BKN033 05/01 Q1011 RERA BLU

Temps: 24-04-2024 04:55 CEST